sensor_id;sensor_type;location;lat;lon;timestamp;pressure;altitude;pressure_sealevel;temperature;humidity
42951;BME280;28592;51.064;17.192;2022-10-30T00:01:53;100664.27;;;13.59;100.00
42951;BME280;28592;51.064;17.192;2022-10-30T00:04:39;100664.27;;;13.59;100.00
42951;BME280;28592;51.064;17.192;2022-10-30T00:07:25;100662.19;;;13.53;100.00
42951;BME280;28592;51.064;17.192;2022-10-30T00:10:10;100664.34;;;13.40;100.00
42951;BME280;28592;51.064;17.192;2022-10-30T00:12:56;100652.55;;;13.43;100.00
42951;BME280;28592;51.064;17.192;2022-10-30T00:15:51;100656.21;;;13.42;100.00
42951;BME280;28592;51.064;17.192;2022-10-30T00:18:38;100654.27;;;13.34;100.00
42951;BME280;28592;51.064;17.192;2022-10-30T00:21:30;100661.84;;;13.29;100.00
42951;BME280;28592;51.064;17.192;2022-10-30T00:24:15;100653.14;;;13.27;100.00
42951;BME280;28592;51.064;17.192;2022-10-30T00:27:01;100659.46;;;13.26;100.00
42951;BME280;28592;51.064;17.192;2022-10-30T00:29:47;100657.37;;;13.20;100.00
42951;BME280;28592;51.064;17.192;2022-10-30T00:32:32;100652.19;;;13.19;100.00
42951;BME280;28592;51.064;17.192;2022-10-30T00:35:23;100651.63;;;13.15;100.00
42951;BME280;28592;51.064;17.192;2022-10-30T00:38:08;100656.70;;;13.09;100.00
42951;BME280;28592;51.064;17.192;2022-10-30T00:40:54;100642.70;;;13.07;100.00
42951;BME280;28592;51.064;17.192;2022-10-30T00:43:41;100652.31;;;12.98;100.00
42951;BME280;28592;51.064;17.192;2022-10-30T00:46:36;100652.31;;;12.98;100.00
42951;BME280;28592;51.064;17.192;2022-10-30T00:49:23;100645.78;;;13.02;100.00
42951;BME280;28592;51.064;17.192;2022-10-30T00:52:09;100640.14;;;12.96;100.00
42951;BME280;28592;51.064;17.192;2022-10-30T00:54:55;100637.63;;;12.94;100.00
42951;BME280;28592;51.064;17.192;2022-10-30T00:57:41;100632.30;;;12.94;100.00
42951;BME280;28592;51.064;17.192;2022-10-30T01:00:29;100632.16;;;12.96;100.00
42951;BME280;28592;51.064;17.192;2022-10-30T01:03:15;100630.64;;;12.93;100.00
42951;BME280;28592;51.064;17.192;2022-10-30T01:06:04;100631.59;;;12.92;100.00
42951;BME280;28592;51.064;17.192;2022-10-30T01:08:53;100631.20;;;12.87;100.00
42951;BME280;28592;51.064;17.192;2022-10-30T01:11:41;100635.67;;;12.87;100.00
42951;BME280;28592;51.064;17.192;2022-10-30T01:14:26;100621.24;;;12.89;100.00
42951;BME280;28592;51.064;17.192;2022-10-30T01:32:11;100611.45;;;12.99;100.00
42951;BME280;28592;51.064;17.192;2022-10-30T01:35:13;100624.75;;;12.99;100.00
42951;BME280;28592;51.064;17.192;2022-10-30T01:40:58;100619.72;;;12.96;100.00
42951;BME280;28592;51.064;17.192;2022-10-30T01:43:46;100621.95;;;12.91;100.00
42951;BME280;28592;51.064;17.192;2022-10-30T01:46:42;100621.95;;;12.91;100.00
42951;BME280;28592;51.064;17.192;2022-10-30T01:52:35;100633.44;;;12.82;100.00
42951;BME280;28592;51.064;17.192;2022-10-30T01:58:27;100644.35;;;12.51;100.00
42951;BME280;28592;51.064;17.192;2022-10-30T02:01:16;100637.34;;;12.50;100.00
42951;BME280;28592;51.064;17.192;2022-10-30T02:04:02;100639.87;;;12.61;100.00
42951;BME280;28592;51.064;17.192;2022-10-30T02:06:48;100635.27;;;12.63;100.00
42951;BME280;28592;51.064;17.192;2022-10-30T02:09:34;100641.40;;;12.63;100.00
42951;BME280;28592;51.064;17.192;2022-10-30T02:12:20;100623.92;;;12.70;100.00
42951;BME280;28592;51.064;17.192;2022-10-30T02:15:07;100620.42;;;12.70;100.00
42951;BME280;28592;51.064;17.192;2022-10-30T02:17:54;100619.60;;;12.69;100.00
42951;BME280;28592;51.064;17.192;2022-10-30T02:20:40;100616.09;;;12.69;100.00
42951;BME280;28592;51.064;17.192;2022-10-30T02:23:25;100610.63;;;12.70;100.00
42951;BME280;28592;51.064;17.192;2022-10-30T02:26:10;100625.34;;;12.65;100.00
42951;BME280;28592;51.064;17.192;2022-10-30T02:28:55;100613.01;;;12.64;100.00
42951;BME280;28592;51.064;17.192;2022-10-30T02:31:40;100639.86;;;12.51;100.00
42951;BME280;28592;51.064;17.192;2022-10-30T02:34:25;100634.28;;;12.45;100.00
42951;BME280;28592;51.064;17.192;2022-10-30T02:37:11;100639.02;;;12.41;100.00
42951;BME280;28592;51.064;17.192;2022-10-30T02:39:56;100629.38;;;12.40;100.00
42951;BME280;28592;51.064;17.192;2022-10-30T02:42:41;100624.34;;;12.37;100.00
42951;BME280;28592;51.064;17.192;2022-10-30T02:45:26;100621.69;;;12.37;100.00
42951;BME280;28592;51.064;17.192;2022-10-30T02:48:11;100623.87;;;12.22;100.00
42951;BME280;28592;51.064;17.192;2022-10-30T02:51:00;100617.72;;;12.22;100.00
42951;BME280;28592;51.064;17.192;2022-10-30T02:53:46;100623.03;;;12.22;100.00
42951;BME280;28592;51.064;17.192;2022-10-30T02:56:31;100614.38;;;12.20;100.00
42951;BME280;28592;51.064;17.192;2022-10-30T02:59:16;100617.72;;;12.22;100.00
42951;BME280;28592;51.064;17.192;2022-10-30T03:02:02;100623.74;;;12.24;100.00
42951;BME280;28592;51.064;17.192;2022-10-30T03:04:50;100619.42;;;12.23;100.00
42951;BME280;28592;51.064;17.192;2022-10-30T03:07:35;100626.40;;;12.24;100.00
42951;BME280;28592;51.064;17.192;2022-10-30T03:10:20;100619.42;;;12.23;100.00
42951;BME280;28592;51.064;17.192;2022-10-30T03:13:05;100623.27;;;12.00;100.00
42951;BME280;28592;51.064;17.192;2022-10-30T03:15:50;100622.76;;;12.15;100.00
42951;BME280;28592;51.064;17.192;2022-10-30T03:18:35;100618.40;;;12.14;100.00
42951;BME280;28592;51.064;17.192;2022-10-30T03:21:23;100618.54;;;12.13;100.00
42951;BME280;28592;51.064;17.192;2022-10-30T03:24:08;100608.91;;;12.12;100.00
42951;BME280;28592;51.064;17.192;2022-10-30T03:26:53;100609.06;;;12.20;100.00
42951;BME280;28592;51.064;17.192;2022-10-30T03:29:38;100611.01;;;12.18;100.00
42951;BME280;28592;51.064;17.192;2022-10-30T03:32:23;100610.16;;;12.17;100.00
42951;BME280;28592;51.064;17.192;2022-10-30T03:35:08;100613.94;;;12.15;100.00
42951;BME280;28592;51.064;17.192;2022-10-30T03:37:53;100618.98;;;12.18;100.00
42951;BME280;28592;51.064;17.192;2022-10-30T03:40:39;100620.51;;;12.20;100.00
42951;BME280;28592;51.064;17.192;2022-10-30T03:43:25;100616.34;;;12.27;100.00
42951;BME280;28592;51.064;17.192;2022-10-30T03:46:10;100622.51;;;12.28;100.00
42951;BME280;28592;51.064;17.192;2022-10-30T03:48:55;100626.98;;;12.27;100.00
42951;BME280;28592;51.064;17.192;2022-10-30T03:51:40;100624.45;;;12.26;100.00
42951;BME280;28592;51.064;17.192;2022-10-30T03:54:25;100617.03;;;12.20;100.00
42951;BME280;28592;51.064;17.192;2022-10-30T03:57:10;100624.42;;;12.16;100.00
42951;BME280;28592;51.064;17.192;2022-10-30T03:59:56;100619.11;;;12.16;100.00
42951;BME280;28592;51.064;17.192;2022-10-30T04:02:48;100612.13;;;12.15;100.00
42951;BME280;28592;51.064;17.192;2022-10-30T04:05:38;100613.80;;;12.16;100.00
42951;BME280;28592;51.064;17.192;2022-10-30T04:08:29;100611.28;;;12.15;100.00
42951;BME280;28592;51.064;17.192;2022-10-30T04:11:17;100612.95;;;12.16;100.00
42951;BME280;28592;51.064;17.192;2022-10-30T04:14:02;100609.62;;;12.14;100.00
42951;BME280;28592;51.064;17.192;2022-10-30T04:16:47;100610.57;;;12.13;100.00
42951;BME280;28592;51.064;17.192;2022-10-30T04:19:32;100602.73;;;12.11;100.00
42951;BME280;28592;51.064;17.192;2022-10-30T04:22:17;100604.85;;;12.08;100.00
42951;BME280;28592;51.064;17.192;2022-10-30T04:25:03;100599.54;;;12.08;100.00
42951;BME280;28592;51.064;17.192;2022-10-30T04:27:48;100600.09;;;12.02;100.00
42951;BME280;28592;51.064;17.192;2022-10-30T04:30:36;100605.40;;;12.02;100.00
42951;BME280;28592;51.064;17.192;2022-10-30T04:33:23;100601.86;;;11.92;100.00
42951;BME280;28592;51.064;17.192;2022-10-30T04:36:09;100603.83;;;11.90;100.00
42951;BME280;28592;51.064;17.192;2022-10-30T04:38:53;100605.33;;;11.83;100.00
42951;BME280;28592;51.064;17.192;2022-10-30T04:41:38;100595.70;;;11.82;100.00
42951;BME280;28592;51.064;17.192;2022-10-30T04:44:23;100605.60;;;11.80;100.00
42951;BME280;28592;51.064;17.192;2022-10-30T04:47:08;100586.47;;;11.86;100.00
42951;BME280;28592;51.064;17.192;2022-10-30T04:49:56;100584.94;;;11.83;100.00
42951;BME280;28592;51.064;17.192;2022-10-30T04:52:41;100585.08;;;11.82;100.00
42951;BME280;28592;51.064;17.192;2022-10-30T04:55:27;100580.31;;;11.76;100.00
42951;BME280;28592;51.064;17.192;2022-10-30T04:58:13;100582.25;;;11.74;100.00
42951;BME280;28592;51.064;17.192;2022-10-30T05:01:02;100583.23;;;11.73;100.00
42951;BME280;28592;51.064;17.192;2022-10-30T05:03:48;100580.13;;;11.68;100.00
42951;BME280;28592;51.064;17.192;2022-10-30T05:06:36;100583.30;;;11.62;100.00
42951;BME280;28592;51.064;17.192;2022-10-30T05:09:22;100585.23;;;11.60;100.00
42951;BME280;28592;51.064;17.192;2022-10-30T05:12:07;100588.42;;;11.54;100.00
42951;BME280;28592;51.064;17.192;2022-10-30T05:14:52;100586.75;;;11.53;100.00
42951;BME280;28592;51.064;17.192;2022-10-30T05:17:38;100585.36;;;11.49;100.00
42951;BME280;28592;51.064;17.192;2022-10-30T05:20:23;100584.77;;;11.45;100.00
42951;BME280;28592;51.064;17.192;2022-10-30T05:23:08;100585.86;;;11.43;100.00
42951;BME280;28592;51.064;17.192;2022-10-30T05:25:53;100589.49;;;11.42;100.00
42951;BME280;28592;51.064;17.192;2022-10-30T05:28:38;100582.52;;;11.41;100.00
42951;BME280;28592;51.064;17.192;2022-10-30T05:31:29;100591.01;;;11.35;100.00
42951;BME280;28592;51.064;17.192;2022-10-30T05:34:14;100591.83;;;11.35;100.00
42951;BME280;28592;51.064;17.192;2022-10-30T05:36:58;100594.88;;;11.31;100.00
42951;BME280;28592;51.064;17.192;2022-10-30T05:39:44;100595.86;;;11.30;100.00
42951;BME280;28592;51.064;17.192;2022-10-30T05:42:29;100591.67;;;11.27;100.00
42951;BME280;28592;51.064;17.192;2022-10-30T05:45:17;100597.80;;;11.28;100.00
42951;BME280;28592;51.064;17.192;2022-10-30T05:48:05;100589.28;;;11.24;100.00
42951;BME280;28592;51.064;17.192;2022-10-30T05:50:50;100596.98;;;11.27;100.00
42951;BME280;28592;51.064;17.192;2022-10-30T05:53:35;100600.31;;;11.29;100.00
42951;BME280;28592;51.064;17.192;2022-10-30T05:56:21;100599.50;;;11.29;100.00
42951;BME280;28592;51.064;17.192;2022-10-30T05:59:06;100595.41;;;11.25;100.00
42951;BME280;28592;51.064;17.192;2022-10-30T06:01:51;100600.28;;;11.20;100.00
42951;BME280;28592;51.064;17.192;2022-10-30T06:04:37;100595.94;;;11.19;100.00
42951;BME280;28592;51.064;17.192;2022-10-30T06:07:25;100598.59;;;11.19;100.00
42951;BME280;28592;51.064;17.192;2022-10-30T06:10:13;100605.86;;;11.17;100.00
42951;BME280;28592;51.064;17.192;2022-10-30T06:13:00;100606.80;;;11.16;100.00
42951;BME280;28592;51.064;17.192;2022-10-30T06:15:45;100602.35;;;11.16;100.00
42951;BME280;28592;51.064;17.192;2022-10-30T06:18:33;100609.20;;;11.19;100.00
42951;BME280;28592;51.064;17.192;2022-10-30T06:21:18;100617.61;;;11.24;100.00
42951;BME280;28592;51.064;17.192;2022-10-30T06:24:03;100604.41;;;11.33;100.00
42951;BME280;28592;51.064;17.192;2022-10-30T06:26:49;100601.36;;;11.38;100.00
42951;BME280;28592;51.064;17.192;2022-10-30T06:29:34;100596.12;;;11.57;100.00
42951;BME280;28592;51.064;17.192;2022-10-30T06:32:20;100599.75;;;11.56;100.00
42951;BME280;28592;51.064;17.192;2022-10-30T06:35:06;100600.52;;;11.67;100.00
42951;BME280;28592;51.064;17.192;2022-10-30T06:37:52;100606.14;;;11.74;100.00
42951;BME280;28592;51.064;17.192;2022-10-30T06:40:42;100614.42;;;11.80;100.00
42951;BME280;28592;51.064;17.192;2022-10-30T06:43:30;100603.93;;;11.79;100.00
42951;BME280;28592;51.064;17.192;2022-10-30T06:46:15;100627.45;;;11.93;100.00
42951;BME280;28592;51.064;17.192;2022-10-30T06:49:00;100637.46;;;11.80;100.00
42951;BME280;28592;51.064;17.192;2022-10-30T06:51:46;100636.78;;;11.57;100.00
42951;BME280;28592;51.064;17.192;2022-10-30T06:54:32;100637.41;;;11.70;100.00
42951;BME280;28592;51.064;17.192;2022-10-30T06:57:17;100642.23;;;11.86;100.00
42951;BME280;28592;51.064;17.192;2022-10-30T07:00:04;100645.88;;;11.85;100.00
42951;BME280;28592;51.064;17.192;2022-10-30T07:02:58;100661.21;;;12.21;100.00
42951;BME280;28592;51.064;17.192;2022-10-30T07:05:47;100654.23;;;12.20;100.00
42951;BME280;28592;51.064;17.192;2022-10-30T07:08:32;100667.56;;;12.49;100.00
42951;BME280;28592;51.064;17.192;2022-10-30T07:11:20;100658.08;;;12.75;100.00
42951;BME280;28592;51.064;17.192;2022-10-30T07:14:05;100652.31;;;12.98;100.00
42951;BME280;28592;51.064;17.192;2022-10-30T07:16:50;100656.67;;;13.18;100.00
42951;BME280;28592;51.064;17.192;2022-10-30T07:19:37;100655.09;;;13.35;100.00
42951;BME280;28592;51.064;17.192;2022-10-30T07:22:23;100651.02;;;13.50;100.00
42951;BME280;28592;51.064;17.192;2022-10-30T07:25:09;100647.05;;;13.63;100.00
42951;BME280;28592;51.064;17.192;2022-10-30T07:27:55;100654.23;;;13.80;100.00
42951;BME280;28592;51.064;17.192;2022-10-30T07:30:42;100651.09;;;13.94;100.00
42951;BME280;28592;51.064;17.192;2022-10-30T07:33:27;100655.24;;;14.06;100.00
42951;BME280;28592;51.064;17.192;2022-10-30T07:36:13;100646.48;;;14.24;100.00
42951;BME280;28592;51.064;17.192;2022-10-30T07:38:58;100653.98;;;14.38;100.00
42951;BME280;28592;51.064;17.192;2022-10-30T07:41:44;100656.45;;;14.49;100.00
42951;BME280;28592;51.064;17.192;2022-10-30T07:44:29;100654.74;;;14.48;100.00
42951;BME280;28592;51.064;17.192;2022-10-30T07:47:14;100659.34;;;14.73;100.00
42951;BME280;28592;51.064;17.192;2022-10-30T07:49:59;100658.50;;;14.72;100.00
42951;BME280;28592;51.064;17.192;2022-10-30T07:52:45;100662.45;;;14.86;100.00
42951;BME280;28592;51.064;17.192;2022-10-30T07:55:31;100660.53;;;15.13;100.00
42951;BME280;28592;51.064;17.192;2022-10-30T07:58:21;100656.20;;;15.12;100.00
42951;BME280;28592;51.064;17.192;2022-10-30T08:01:10;100658.16;;;15.28;100.00
42951;BME280;28592;51.064;17.192;2022-10-30T08:03:58;100652.34;;;15.83;100.00
42951;BME280;28592;51.064;17.192;2022-10-30T08:06:43;100645.95;;;16.10;100.00
42951;BME280;28592;51.064;17.192;2022-10-30T08:09:28;100647.37;;;16.30;100.00
42951;BME280;28592;51.064;17.192;2022-10-30T08:12:14;100644.97;;;16.61;100.00
42951;BME280;28592;51.064;17.192;2022-10-30T08:15:01;100642.28;;;16.61;100.00
42951;BME280;28592;51.064;17.192;2022-10-30T08:17:48;100651.98;;;16.78;100.00
42951;BME280;28592;51.064;17.192;2022-10-30T08:20:34;100654.53;;;17.03;100.00
42951;BME280;28592;51.064;17.192;2022-10-30T08:23:19;100651.18;;;17.01;100.00
42951;BME280;28592;51.064;17.192;2022-10-30T08:26:06;100644.79;;;17.26;100.00
42951;BME280;28592;51.064;17.192;2022-10-30T08:28:52;100621.61;;;17.74;100.00
42951;BME280;28592;51.064;17.192;2022-10-30T08:31:37;100617.59;;;17.78;100.00
42951;BME280;28592;51.064;17.192;2022-10-30T08:34:22;100618.82;;;17.59;100.00
42951;BME280;28592;51.064;17.192;2022-10-30T08:37:08;100617.16;;;17.58;100.00
42951;BME280;28592;51.064;17.192;2022-10-30T08:39:53;100613.63;;;17.58;100.00
42951;BME280;28592;51.064;17.192;2022-10-30T08:42:39;100626.63;;;17.77;100.00
42951;BME280;28592;51.064;17.192;2022-10-30T08:45:24;100624.97;;;17.76;100.00
42951;BME280;28592;51.064;17.192;2022-10-30T08:48:12;100627.80;;;17.82;100.00
42951;BME280;28592;51.064;17.192;2022-10-30T08:50:57;100623.45;;;17.81;100.00
42951;BME280;28592;51.064;17.192;2022-10-30T08:53:48;100617.17;;;17.97;100.00
42951;BME280;28592;51.064;17.192;2022-10-30T08:56:36;100607.64;;;17.94;100.00
42951;BME280;28592;51.064;17.192;2022-10-30T08:59:21;100610.12;;;18.04;100.00
42951;BME280;28592;51.064;17.192;2022-10-30T09:02:16;100610.30;;;18.02;100.00
42951;BME280;28592;51.064;17.192;2022-10-30T09:05:02;100612.66;;;17.97;100.00
42951;BME280;28592;51.064;17.192;2022-10-30T09:07:48;100606.23;;;18.06;100.00
42951;BME280;28592;51.064;17.192;2022-10-30T09:10:36;100606.98;;;18.23;100.00
42951;BME280;28592;51.064;17.192;2022-10-30T09:13:23;100607.16;;;18.21;100.00
42951;BME280;28592;51.064;17.192;2022-10-30T09:16:10;100612.36;;;18.53;100.00
42951;BME280;28592;51.064;17.192;2022-10-30T09:18:56;100609.58;;;18.69;100.00
42951;BME280;28592;51.064;17.192;2022-10-30T09:21:42;100607.08;;;18.68;100.00
42951;BME280;28592;51.064;17.192;2022-10-30T09:24:27;100603.89;;;18.87;100.00
42951;BME280;28592;51.064;17.192;2022-10-30T09:27:13;100599.73;;;18.84;100.00
42951;BME280;28592;51.064;17.192;2022-10-30T09:30:02;100599.91;;;18.83;100.00
42951;BME280;28592;51.064;17.192;2022-10-30T09:32:54;100622.20;;;18.83;100.00
42951;BME280;28592;51.064;17.192;2022-10-30T09:35:40;100625.98;;;18.97;100.00
42951;BME280;28592;51.064;17.192;2022-10-30T09:38:25;100616.84;;;19.06;100.00
42951;BME280;28592;51.064;17.192;2022-10-30T09:41:26;100613.98;;;19.22;100.00
42951;BME280;28592;51.064;17.192;2022-10-30T09:47:21;100595.51;;;19.42;100.00
42951;BME280;28592;51.064;17.192;2022-10-30T09:56:13;100604.75;;;20.12;100.00
42951;BME280;28592;51.064;17.192;2022-10-30T10:08:01;100577.22;;;20.66;100.00
42951;BME280;28592;51.064;17.192;2022-10-30T10:10:52;100572.02;;;20.65;100.00
42951;BME280;28592;51.064;17.192;2022-10-30T10:13:50;100574.79;;;20.71;98.50
42951;BME280;28592;51.064;17.192;2022-10-30T10:16:40;100575.68;;;20.57;98.54
42951;BME280;28592;51.064;17.192;2022-10-30T10:22:36;100562.32;;;21.13;96.40
42951;BME280;28592;51.064;17.192;2022-10-30T10:25:24;100558.78;;;21.12;96.45
42951;BME280;28592;51.064;17.192;2022-10-30T10:40:14;100550.57;;;21.54;93.88
42951;BME280;28592;51.064;17.192;2022-10-30T10:49:07;100546.23;;;22.00;94.01
42951;BME280;28592;51.064;17.192;2022-10-30T10:52:02;100540.83;;;22.00;94.04
42951;BME280;28592;51.064;17.192;2022-10-30T10:54:58;100544.43;;;22.20;91.86
42951;BME280;28592;51.064;17.192;2022-10-30T10:57:48;100537.84;;;22.42;88.39
42951;BME280;28592;51.064;17.192;2022-10-30T11:00:36;100547.58;;;22.37;88.81
42951;BME280;28592;51.064;17.192;2022-10-30T11:03:28;100544.06;;;22.43;87.36
42951;BME280;28592;51.064;17.192;2022-10-30T11:06:19;100539.70;;;22.42;87.37
42951;BME280;28592;51.064;17.192;2022-10-30T11:09:15;100551.33;;;22.36;89.95
42951;BME280;28592;51.064;17.192;2022-10-30T11:12:04;100540.73;;;22.34;90.05
42951;BME280;28592;51.064;17.192;2022-10-30T11:14:49;100540.81;;;22.74;85.41
42951;BME280;28592;51.064;17.192;2022-10-30T11:23:38;100535.70;;;23.68;82.57
42951;BME280;28592;51.064;17.192;2022-10-30T11:26:27;100534.87;;;23.68;82.57
42951;BME280;28592;51.064;17.192;2022-10-30T11:29:17;100526.73;;;23.74;83.64
42951;BME280;28592;51.064;17.192;2022-10-30T11:32:16;100528.76;;;23.92;83.56
42951;BME280;28592;51.064;17.192;2022-10-30T11:35:11;100527.84;;;24.11;81.96
42951;BME280;28592;51.064;17.192;2022-10-30T11:40:54;100522.02;;;24.45;82.58
42951;BME280;28592;51.064;17.192;2022-10-30T11:43:44;100520.34;;;24.44;82.51
42951;BME280;28592;51.064;17.192;2022-10-30T11:46:34;100526.75;;;24.56;79.22
42951;BME280;28592;51.064;17.192;2022-10-30T11:49:32;100520.00;;;24.34;79.70
42951;BME280;28592;51.064;17.192;2022-10-30T11:52:23;100521.06;;;24.33;79.62
42951;BME280;28592;51.064;17.192;2022-10-30T11:55:15;100510.58;;;24.74;78.49
42951;BME280;28592;51.064;17.192;2022-10-30T11:58:01;100507.07;;;24.67;77.09
42951;BME280;28592;51.064;17.192;2022-10-30T12:00:57;100506.90;;;24.87;77.56
42951;BME280;28592;51.064;17.192;2022-10-30T12:03:43;100506.09;;;24.86;77.65
42951;BME280;28592;51.064;17.192;2022-10-30T12:06:29;100494.58;;;24.91;79.89
42951;BME280;28592;51.064;17.192;2022-10-30T12:09:20;100499.52;;;24.76;75.69
42951;BME280;28592;51.064;17.192;2022-10-30T12:12:12;100500.19;;;24.65;76.30
42951;BME280;28592;51.064;17.192;2022-10-30T12:18:05;100487.35;;;24.54;77.32
42951;BME280;28592;51.064;17.192;2022-10-30T12:20:54;100499.25;;;24.53;78.56
42951;BME280;28592;51.064;17.192;2022-10-30T12:23:50;100496.54;;;24.53;78.76
42951;BME280;28592;51.064;17.192;2022-10-30T12:26:39;100493.20;;;24.82;73.92
42951;BME280;28592;51.064;17.192;2022-10-30T12:32:41;100497.53;;;24.58;75.44
42951;BME280;28592;51.064;17.192;2022-10-30T12:38:27;100506.86;;;24.00;77.95
42951;BME280;28592;51.064;17.192;2022-10-30T12:41:21;100492.52;;;23.99;78.07
42951;BME280;28592;51.064;17.192;2022-10-30T12:44:19;100500.33;;;24.14;79.14
42951;BME280;28592;51.064;17.192;2022-10-30T12:53:08;100490.65;;;24.31;81.06
42951;BME280;28592;51.064;17.192;2022-10-30T12:56:08;100499.83;;;24.30;81.24
42951;BME280;28592;51.064;17.192;2022-10-30T13:04:52;100482.41;;;24.75;80.53
42951;BME280;28592;51.064;17.192;2022-10-30T13:07:46;100479.92;;;24.74;80.75
42951;BME280;28592;51.064;17.192;2022-10-30T13:13:44;100480.55;;;24.45;80.67
42951;BME280;28592;51.064;17.192;2022-10-30T13:16:33;100476.19;;;24.44;80.63
42951;BME280;28592;51.064;17.192;2022-10-30T13:19:22;100476.33;;;24.49;81.26
42951;BME280;28592;51.064;17.192;2022-10-30T13:28:15;100476.63;;;24.41;81.09
42951;BME280;28592;51.064;17.192;2022-10-30T13:34:15;100476.92;;;24.26;78.23
42951;BME280;28592;51.064;17.192;2022-10-30T13:37:08;100473.43;;;23.81;82.39
42951;BME280;28592;51.064;17.192;2022-10-30T13:40:12;100474.75;;;23.66;82.70
42951;BME280;28592;51.064;17.192;2022-10-30T13:55:04;100477.17;;;24.49;81.43
42951;BME280;28592;51.064;17.192;2022-10-30T13:58:04;100475.52;;;24.48;81.29
42951;BME280;28592;51.064;17.192;2022-10-30T14:09:53;100464.76;;;24.91;79.76
42951;BME280;28592;51.064;17.192;2022-10-30T14:15:42;100464.36;;;24.87;78.41
42951;BME280;28592;51.064;17.192;2022-10-30T14:24:34;100451.17;;;24.73;79.23
42951;BME280;28592;51.064;17.192;2022-10-30T14:27:29;100449.37;;;24.60;79.90
42951;BME280;28592;51.064;17.192;2022-10-30T14:30:20;100455.50;;;24.49;81.09
42951;BME280;28592;51.064;17.192;2022-10-30T14:45:07;100440.64;;;24.02;81.41
42951;BME280;28592;51.064;17.192;2022-10-30T14:56:49;100437.44;;;23.17;84.52
42951;BME280;28592;51.064;17.192;2022-10-30T14:59:37;100429.81;;;22.95;85.54
42951;BME280;28592;51.064;17.192;2022-10-30T15:02:35;100431.67;;;22.94;85.49
42951;BME280;28592;51.064;17.192;2022-10-30T15:20:11;100430.92;;;21.21;94.89
42951;BME280;28592;51.064;17.192;2022-10-30T15:25:55;100436.40;;;20.72;97.45
42951;BME280;28592;51.064;17.192;2022-10-30T15:28:42;100432.89;;;20.72;97.35
42951;BME280;28592;51.064;17.192;2022-10-30T15:31:28;100438.48;;;20.22;99.23
42951;BME280;28592;51.064;17.192;2022-10-30T15:34:19;100438.69;;;20.20;99.35
42951;BME280;28592;51.064;17.192;2022-10-30T15:37:12;100445.68;;;19.79;100.00
42951;BME280;28592;51.064;17.192;2022-10-30T15:42:58;100444.62;;;19.59;100.00
42951;BME280;28592;51.064;17.192;2022-10-30T15:45:45;100439.25;;;19.15;100.00
42951;BME280;28592;51.064;17.192;2022-10-30T15:48:34;100443.70;;;18.94;100.00
42951;BME280;28592;51.064;17.192;2022-10-30T15:51:23;100443.59;;;18.73;100.00
42951;BME280;28592;51.064;17.192;2022-10-30T15:54:10;100435.53;;;18.73;100.00
42951;BME280;28592;51.064;17.192;2022-10-30T15:56:58;100431.52;;;18.54;100.00
42951;BME280;28592;51.064;17.192;2022-10-30T15:59:52;100430.66;;;18.39;100.00
42951;BME280;28592;51.064;17.192;2022-10-30T16:02:39;100437.65;;;18.03;100.00
42951;BME280;28592;51.064;17.192;2022-10-30T16:05:24;100441.27;;;17.88;100.00
42951;BME280;28592;51.064;17.192;2022-10-30T16:08:22;100441.39;;;17.72;100.00
42951;BME280;28592;51.064;17.192;2022-10-30T16:11:07;100436.03;;;17.72;100.00
42951;BME280;28592;51.064;17.192;2022-10-30T16:13:53;100440.02;;;17.45;100.00
42951;BME280;28592;51.064;17.192;2022-10-30T16:16:38;100447.94;;;17.30;100.00
42951;BME280;28592;51.064;17.192;2022-10-30T16:19:26;100437.22;;;17.30;100.00
42951;BME280;28592;51.064;17.192;2022-10-30T16:22:27;100445.36;;;17.06;100.00
42951;BME280;28592;51.064;17.192;2022-10-30T16:25:09;100446.34;;;17.05;100.00
42951;BME280;28592;51.064;17.192;2022-10-30T16:27:59;100448.75;;;16.84;100.00
42951;BME280;28592;51.064;17.192;2022-10-30T16:30:44;100445.78;;;16.71;100.00
42951;BME280;28592;51.064;17.192;2022-10-30T16:33:34;100447.28;;;16.58;100.00
42951;BME280;28592;51.064;17.192;2022-10-30T16:36:20;100445.62;;;16.57;100.00
42951;BME280;28592;51.064;17.192;2022-10-30T16:39:07;100442.44;;;16.37;100.00
42951;BME280;28592;51.064;17.192;2022-10-30T16:41:59;100442.77;;;16.26;100.00
42951;BME280;28592;51.064;17.192;2022-10-30T16:44:45;100449.28;;;16.16;100.00
42951;BME280;28592;51.064;17.192;2022-10-30T16:47:30;100452.28;;;16.05;100.00
42951;BME280;28592;51.064;17.192;2022-10-30T16:50:19;100460.80;;;16.00;100.00
42951;BME280;28592;51.064;17.192;2022-10-30T16:53:21;100453.79;;;15.99;100.00
42951;BME280;28592;51.064;17.192;2022-10-30T16:56:13;100457.29;;;15.92;100.00
42951;BME280;28592;51.064;17.192;2022-10-30T16:59:15;100460.97;;;15.91;100.00
42951;BME280;28592;51.064;17.192;2022-10-30T17:01:59;100471.26;;;15.61;100.00
42951;BME280;28592;51.064;17.192;2022-10-30T17:04:55;100474.09;;;15.60;100.00
42951;BME280;28592;51.064;17.192;2022-10-30T17:10:43;100470.70;;;15.50;100.00
42951;BME280;28592;51.064;17.192;2022-10-30T17:13:39;100473.20;;;15.43;100.00
42951;BME280;28592;51.064;17.192;2022-10-30T17:16:32;100460.30;;;15.39;100.00
42951;BME280;28592;51.064;17.192;2022-10-30T17:22:24;100468.27;;;15.31;100.00